createdAt,value
2023-04-03T00:00:29.887Z,102117.84
2023-04-03T00:02:56.791Z,102116.09
2023-04-03T00:05:23.390Z,102122.06
2023-04-03T00:07:50.018Z,102109.88
2023-04-03T00:10:20.331Z,102121.88
2023-04-03T00:12:46.976Z,102094.63
2023-04-03T00:15:13.579Z,102104.13
2023-04-03T00:17:40.271Z,102118.56
2023-04-03T00:20:08.017Z,102105.72
2023-04-03T00:22:34.614Z,102125.31
2023-04-03T00:25:01.168Z,102125.22
2023-04-03T00:27:29.115Z,102129.53
2023-04-03T00:29:56.009Z,102127.59
2023-04-03T00:32:22.607Z,102124.06
2023-04-03T00:34:49.514Z,102119.03
2023-04-03T00:37:18.594Z,102114.72
2023-04-03T00:39:45.227Z,102123.41
2023-04-03T00:42:12.280Z,102120.69
2023-04-03T00:45:15.952Z,102115.47
2023-04-03T00:47:44.580Z,102098.13
2023-04-03T00:50:11.230Z,102109.28
2023-04-03T00:52:39.494Z,102100.78
2023-04-03T00:55:09.818Z,102100.00
2023-04-03T00:57:36.966Z,102108.50
2023-04-03T01:00:07.327Z,102098.06
2023-04-03T01:02:34.256Z,102103.28
2023-04-03T01:05:02.476Z,102107.75
2023-04-03T01:07:31.654Z,102095.56
2023-04-03T01:09:59.983Z,102100.81
2023-04-03T01:12:28.649Z,102095.06
2023-04-03T01:14:57.279Z,102088.69
2023-04-03T01:17:29.098Z,102095.09
2023-04-03T01:20:18.990Z,102107.97
2023-04-03T01:22:57.086Z,102092.56
2023-04-03T01:25:24.178Z,102096.81
2023-04-03T01:27:51.593Z,102096.03
2023-04-03T01:30:21.069Z,102104.00
2023-04-03T01:32:49.441Z,102097.94
2023-04-03T01:35:16.172Z,102013.59
2023-04-03T01:37:42.905Z,102100.03
2023-04-03T01:40:10.676Z,102088.25
2023-04-03T01:42:37.360Z,102103.47
2023-04-03T01:45:04.743Z,102102.97
2023-04-03T01:47:31.377Z,102107.50
2023-04-03T01:49:59.548Z,102104.72
2023-04-03T01:52:26.482Z,102098.91
2023-04-03T01:54:53.413Z,102107.72
2023-04-03T01:57:20.248Z,102097.19
2023-04-03T01:59:47.002Z,102093.25
2023-04-03T02:02:13.616Z,102111.50
2023-04-03T02:04:40.278Z,102108.06
2023-04-03T02:07:08.358Z,102106.47
2023-04-03T02:09:35.101Z,102098.06
2023-04-03T02:12:02.010Z,102108.44
2023-04-03T02:14:31.076Z,102072.66
2023-04-03T02:16:57.855Z,102100.06
2023-04-03T02:19:24.851Z,102105.34
2023-04-03T02:21:51.522Z,102111.41
2023-04-03T02:24:20.100Z,102103.72
2023-04-03T02:26:46.722Z,102112.38
2023-04-03T02:29:13.468Z,102114.28
2023-04-03T02:31:40.112Z,102105.50
2023-04-03T02:34:06.912Z,102109.00
2023-04-03T02:36:35.649Z,102106.50
2023-04-03T02:39:06.111Z,102097.97
2023-04-03T02:41:34.309Z,102100.81
2023-04-03T02:44:01.509Z,102113.03
2023-04-03T02:46:28.410Z,102113.16
2023-04-03T02:48:55.191Z,102092.75
2023-04-03T02:51:22.653Z,102110.78
2023-04-03T02:53:49.223Z,102122.03
2023-04-03T02:56:20.231Z,102115.34
2023-04-03T02:58:48.447Z,102119.78
2023-04-03T03:01:16.533Z,102098.41
2023-04-03T03:03:43.308Z,102119.81
2023-04-03T03:06:12.258Z,102125.16
2023-04-03T03:08:40.845Z,102121.16
2023-04-03T03:11:07.695Z,102123.06
2023-04-03T03:13:34.807Z,102100.03
2023-04-03T03:16:03.761Z,102103.63
2023-04-03T03:18:30.982Z,102111.44
2023-04-03T03:21:00.312Z,102121.09
2023-04-03T03:23:28.695Z,102121.91
2023-04-03T03:25:56.886Z,102125.59
2023-04-03T03:28:23.534Z,102123.88
2023-04-03T03:30:50.198Z,102128.25
2023-04-03T03:33:19.939Z,102124.88
2023-04-03T03:35:46.635Z,102094.31
2023-04-03T03:38:13.302Z,102129.59
2023-04-03T03:40:40.200Z,102133.97
2023-04-03T03:43:07.247Z,102131.53
2023-04-03T03:45:34.537Z,102135.13
2023-04-03T03:48:02.237Z,102137.88
2023-04-03T03:50:30.475Z,102125.09
2023-04-03T03:52:57.092Z,102126.06
2023-04-03T03:55:24.785Z,102117.69
2023-04-03T03:57:54.395Z,102140.78
2023-04-03T04:00:22.160Z,102132.25
2023-04-03T04:02:54.719Z,102134.06
2023-04-03T04:05:24.010Z,102134.97
2023-04-03T04:07:51.941Z,102135.00
2023-04-03T04:10:18.931Z,102139.41
2023-04-03T04:12:46.356Z,102142.03
2023-04-03T04:15:14.073Z,102130.91
2023-04-03T04:17:40.872Z,102143.00
2023-04-03T04:20:12.414Z,102141.38
2023-04-03T04:22:40.146Z,102140.56
2023-04-03T04:25:09.316Z,102114.25
2023-04-03T04:27:37.166Z,102151.13
2023-04-03T04:30:05.314Z,102135.75
2023-04-03T04:32:32.951Z,102150.28
2023-04-03T04:34:59.890Z,102152.97
2023-04-03T04:37:28.129Z,102153.91
2023-04-03T04:39:54.666Z,102153.09
2023-04-03T04:42:22.735Z,102154.81
2023-04-03T04:44:50.518Z,102160.97
2023-04-03T04:47:17.705Z,102153.19
2023-04-03T04:49:44.621Z,102155.75
2023-04-03T04:52:12.154Z,102160.97
2023-04-03T04:54:40.977Z,102158.44
2023-04-03T04:57:07.779Z,102165.38
2023-04-03T04:59:36.040Z,102166.25
2023-04-03T05:02:03.268Z,102173.19
2023-04-03T05:04:30.968Z,102169.81
2023-04-03T05:07:04.217Z,102179.41
2023-04-03T05:09:33.961Z,102163.84
2023-04-03T05:12:01.333Z,102167.28
2023-04-03T05:14:32.180Z,102172.41
2023-04-03T05:17:04.766Z,102175.84
2023-04-03T05:19:34.506Z,102175.00
2023-04-03T05:22:03.483Z,102170.69
2023-04-03T05:24:31.046Z,102164.81
2023-04-03T05:26:57.628Z,102187.97
2023-04-03T05:29:24.207Z,102200.91
2023-04-03T05:31:51.241Z,102192.28
2023-04-03T05:34:19.669Z,102182.78
2023-04-03T05:36:48.750Z,102194.84
2023-04-03T05:39:16.266Z,102196.53
2023-04-03T05:41:44.607Z,102193.88
2023-04-03T05:44:12.016Z,102195.47
2023-04-03T05:46:39.400Z,102200.63
2023-04-03T05:49:08.864Z,102198.06
2023-04-03T05:51:39.378Z,102209.94
2023-04-03T05:54:20.352Z,102211.66
2023-04-03T05:56:47.953Z,102183.34
2023-04-03T05:59:14.540Z,102215.03
2023-04-03T06:01:41.327Z,102215.75
2023-04-03T06:04:08.080Z,102213.00
2023-04-03T06:06:46.334Z,102194.06
2023-04-03T06:09:13.322Z,102221.41
2023-04-03T06:11:39.921Z,102221.28
2023-04-03T06:14:06.764Z,102220.31
2023-04-03T06:16:33.364Z,102210.69
2023-04-03T06:19:00.167Z,102202.97
2023-04-03T06:21:26.918Z,102225.97
2023-04-03T06:23:54.914Z,102226.59
2023-04-03T06:26:21.521Z,102229.94
2023-04-03T06:28:48.200Z,102229.81
2023-04-03T06:31:15.102Z,102233.03
2023-04-03T06:33:41.739Z,102214.75
2023-04-03T06:36:11.134Z,102229.16
2023-04-03T06:38:37.907Z,102230.69
2023-04-03T06:41:05.832Z,102233.72
2023-04-03T06:43:33.924Z,102227.50
2023-04-03T06:46:01.161Z,102227.25
2023-04-03T06:48:27.836Z,102228.66
2023-04-03T06:50:54.505Z,102236.25
2023-04-03T06:53:21.146Z,102215.09
2023-04-03T06:55:47.708Z,102235.47
2023-04-03T06:58:15.714Z,102236.94
2023-04-03T07:00:42.332Z,102234.69
2023-04-03T07:03:09.013Z,102216.28
2023-04-03T07:05:35.707Z,102234.03
2023-04-03T07:08:02.335Z,102231.06
2023-04-03T07:10:28.875Z,102235.97
2023-04-03T07:12:55.565Z,102231.75
2023-04-03T07:15:23.649Z,102222.13
2023-04-03T07:17:50.271Z,102242.41
2023-04-03T07:20:16.951Z,102239.22
2023-04-03T07:22:43.600Z,102241.72
2023-04-03T07:25:10.247Z,102234.41
2023-04-03T07:27:37.104Z,102228.66
2023-04-03T07:30:04.555Z,102225.94
2023-04-03T07:32:32.594Z,102240.88
2023-04-03T07:34:59.670Z,102243.06
2023-04-03T07:37:27.155Z,102241.91
2023-04-03T07:39:53.971Z,102241.91
2023-04-03T07:42:20.572Z,102239.72
2023-04-03T07:44:47.450Z,102237.66
2023-04-03T07:47:14.069Z,102241.59
2023-04-03T07:49:42.073Z,102232.16
2023-04-03T07:52:08.765Z,102240.56
2023-04-03T07:54:35.539Z,102240.72
2023-04-03T07:57:02.246Z,102248.59
2023-04-03T07:59:29.013Z,102228.72
2023-04-03T08:01:55.692Z,102254.41
2023-04-03T08:04:22.308Z,102248.09
2023-04-03T08:06:50.467Z,102247.88
2023-04-03T08:09:17.548Z,102241.22
2023-04-03T08:11:44.380Z,102244.59
2023-04-03T08:14:10.969Z,102252.06
2023-04-03T08:16:37.671Z,102253.88
2023-04-03T08:19:07.333Z,102256.94
2023-04-03T08:21:36.293Z,102258.69
2023-04-03T08:24:04.606Z,102247.31
2023-04-03T08:26:31.152Z,102250.56
2023-04-03T08:28:57.688Z,102263.59
2023-04-03T08:31:24.463Z,102252.25
2023-04-03T08:33:51.069Z,102252.03
2023-04-03T08:36:20.996Z,102258.84
2023-04-03T08:38:48.040Z,102256.09
2023-04-03T08:41:22.072Z,102262.00
2023-04-03T08:44:00.790Z,102265.09
2023-04-03T08:46:41.536Z,102256.03
2023-04-03T08:49:16.620Z,102255.38
2023-04-03T08:51:48.715Z,102252.84
2023-04-03T08:54:25.133Z,102267.09
2023-04-03T08:56:53.564Z,102270.25
2023-04-03T08:59:27.511Z,102262.19
2023-04-03T09:01:55.367Z,102282.81
2023-04-03T09:04:22.030Z,102274.09
2023-04-03T09:06:53.881Z,102283.41
2023-04-03T09:09:29.187Z,102281.28
2023-04-03T09:12:05.035Z,102281.47
2023-04-03T09:14:37.204Z,102260.00
2023-04-03T09:17:10.549Z,102284.44
2023-04-03T09:19:42.492Z,102273.41
2023-04-03T09:22:14.544Z,102270.56
2023-04-03T09:24:42.573Z,102267.94
2023-04-03T09:27:12.083Z,102280.25
2023-04-03T09:29:41.851Z,102273.28
2023-04-03T09:32:21.943Z,102260.63
2023-04-03T09:34:49.807Z,102274.91
2023-04-03T09:37:36.382Z,102268.94
2023-04-03T09:40:03.948Z,102267.75
2023-04-03T09:42:32.634Z,102265.84
2023-04-03T09:45:01.041Z,102269.25
2023-04-03T09:47:29.648Z,102268.56
2023-04-03T09:50:21.377Z,102268.28
2023-04-03T09:52:49.834Z,102267.88
2023-04-03T09:55:19.054Z,102264.03
2023-04-03T09:57:47.937Z,102259.13
2023-04-03T10:00:23.448Z,102263.81
2023-04-03T10:02:53.432Z,102259.13
2023-04-03T10:05:30.134Z,102259.78
2023-04-03T10:08:10.640Z,102265.53
2023-04-03T10:10:38.433Z,102239.47
2023-04-03T10:13:10.539Z,102257.72
2023-04-03T10:15:44.963Z,102255.88
2023-04-03T10:18:30.434Z,102251.38
2023-04-03T10:21:03.180Z,102258.91
2023-04-03T10:23:38.542Z,102260.06
2023-04-03T10:26:15.907Z,102246.88
2023-04-03T10:28:49.126Z,102254.31
2023-04-03T10:31:23.203Z,102253.66
2023-04-03T10:34:00.063Z,102258.63
2023-04-03T10:36:37.848Z,102244.97
2023-04-03T10:39:16.506Z,102243.28
2023-04-03T10:42:15.154Z,102232.38
2023-04-03T10:44:58.650Z,102182.88
2023-04-03T10:47:34.323Z,102236.63
2023-04-03T10:50:08.632Z,102227.44
2023-04-03T10:52:44.361Z,102221.78
2023-04-03T10:55:25.236Z,102215.81
2023-04-03T10:57:53.447Z,102230.28
2023-04-03T11:00:31.723Z,102193.75
2023-04-03T11:03:04.046Z,102214.00
2023-04-03T11:05:37.880Z,102206.28
2023-04-03T11:08:12.226Z,102213.91
2023-04-03T11:10:43.397Z,102211.06
2023-04-03T11:13:14.774Z,102201.66
2023-04-03T11:15:43.769Z,102203.44
2023-04-03T11:18:14.540Z,102199.53
2023-04-03T11:20:44.589Z,102195.88
2023-04-03T11:23:22.280Z,102189.34
2023-04-03T11:25:52.697Z,102186.53
2023-04-03T11:28:19.398Z,102175.25
2023-04-03T11:30:55.328Z,102187.56
2023-04-03T11:33:33.807Z,102187.22
2023-04-03T11:36:19.099Z,102197.50
2023-04-03T11:38:55.858Z,102183.66
2023-04-03T11:41:28.553Z,102178.09
2023-04-03T11:44:01.261Z,102182.91
2023-04-03T11:46:52.418Z,102179.41
2023-04-03T11:49:59.325Z,102173.91
2023-04-03T11:52:57.426Z,102175.13
2023-04-03T11:55:46.201Z,102161.22
2023-04-03T11:58:15.404Z,102165.09
2023-04-03T12:01:04.308Z,102152.16
2023-04-03T12:04:00.894Z,102154.16
2023-04-03T12:07:21.462Z,102112.06
2023-04-03T12:10:21.413Z,102146.50
2023-04-03T12:12:59.201Z,102150.47
2023-04-03T12:15:53.714Z,102147.72
2023-04-03T12:18:57.029Z,102141.78
2023-04-03T12:21:25.104Z,102137.19
2023-04-03T12:24:04.099Z,102134.44
2023-04-03T12:26:45.850Z,102142.00
2023-04-03T12:29:21.233Z,102129.53
2023-04-03T12:32:00.112Z,102128.81
2023-04-03T12:34:48.822Z,102121.94
2023-04-03T12:37:35.804Z,102111.47
2023-04-03T12:40:11.324Z,102108.69
2023-04-03T12:43:07.763Z,102097.06
2023-04-03T12:45:42.402Z,102104.72
2023-04-03T12:48:15.970Z,102114.28
2023-04-03T12:50:44.562Z,102088.91
2023-04-03T12:53:14.494Z,102107.75
2023-04-03T12:55:41.198Z,102108.84
2023-04-03T12:58:23.398Z,102100.28
2023-04-03T13:01:01.248Z,102106.44
2023-04-03T13:03:28.933Z,102095.22
2023-04-03T13:05:59.560Z,102080.75
2023-04-03T13:08:26.186Z,102096.06
2023-04-03T13:10:59.228Z,102091.06
2023-04-03T13:13:27.322Z,102074.78
2023-04-03T13:15:54.829Z,102084.75
2023-04-03T13:18:30.296Z,102084.00
2023-04-03T13:21:02.332Z,102073.47
2023-04-03T13:23:30.262Z,102080.94
2023-04-03T13:25:57.919Z,102086.53
2023-04-03T13:28:27.308Z,102089.22
2023-04-03T13:31:03.358Z,102088.16
2023-04-03T13:33:33.489Z,102079.09
2023-04-03T13:36:03.905Z,102079.59
2023-04-03T13:38:32.130Z,102077.97
2023-04-03T13:41:00.648Z,102074.97
2023-04-03T13:43:30.184Z,102064.78
2023-04-03T13:46:00.561Z,102057.06
2023-04-03T13:48:27.474Z,102062.41
2023-04-03T13:50:58.540Z,102063.59
2023-04-03T13:53:26.616Z,102057.47
2023-04-03T13:55:58.286Z,102017.03
2023-04-03T13:58:26.428Z,102054.44
2023-04-03T14:00:56.975Z,102029.75
2023-04-03T14:03:26.541Z,102056.63
2023-04-03T14:05:53.900Z,102039.81
2023-04-03T14:08:26.685Z,102032.91
2023-04-03T14:10:59.511Z,102043.75
2023-04-03T14:13:26.076Z,102030.75
2023-04-03T14:15:56.443Z,102007.38
2023-04-03T14:18:24.944Z,102034.03
2023-04-03T14:20:51.521Z,102023.25
2023-04-03T14:23:18.246Z,102026.66
2023-04-03T14:25:44.921Z,102033.84
2023-04-03T14:28:18.048Z,102016.69
2023-04-03T14:30:46.680Z,102020.91
2023-04-03T14:33:17.206Z,102013.09
2023-04-03T14:35:43.958Z,102012.34
2023-04-03T14:38:22.759Z,101999.34
2023-04-03T14:40:49.906Z,102000.50
2023-04-03T14:43:16.550Z,101994.78
2023-04-03T14:45:43.390Z,102003.88
2023-04-03T14:48:19.560Z,102009.50
2023-04-03T14:50:58.291Z,102002.94
2023-04-03T14:53:38.811Z,101988.53
2023-04-03T14:56:12.956Z,102000.63
2023-04-03T14:58:39.585Z,102001.34
2023-04-03T15:01:06.187Z,101967.69
2023-04-03T15:03:34.311Z,101999.88
2023-04-03T15:06:01.060Z,102001.44
2023-04-03T15:08:28.976Z,101996.44
2023-04-03T15:10:55.713Z,101967.78
2023-04-03T15:13:23.281Z,101985.22
2023-04-03T15:15:51.175Z,101985.50
2023-04-03T15:18:20.594Z,101987.28
2023-04-03T15:20:48.997Z,101986.56
2023-04-03T15:23:16.827Z,101987.00
2023-04-03T15:25:44.205Z,101991.66
2023-04-03T15:28:18.626Z,101958.41
2023-04-03T15:30:45.377Z,101988.50
2023-04-03T15:33:11.971Z,101996.69
2023-04-03T15:35:38.809Z,101993.06
2023-04-03T15:38:07.251Z,101990.28
2023-04-03T15:40:33.853Z,101951.84
2023-04-03T15:43:00.413Z,101986.59
2023-04-03T15:45:30.292Z,101981.34
2023-04-03T15:47:57.029Z,101968.59
2023-04-03T15:50:23.893Z,101983.94
2023-04-03T15:52:50.536Z,101980.53
2023-04-03T15:55:18.540Z,101981.47
2023-04-03T15:57:45.072Z,101981.06
2023-04-03T16:00:13.427Z,101982.78
2023-04-03T16:02:41.097Z,101957.28
2023-04-03T16:05:09.768Z,101993.50
2023-04-03T16:07:38.080Z,102000.34
2023-04-03T16:10:05.670Z,102001.53
2023-04-03T16:12:33.584Z,102000.63
2023-04-03T16:15:00.272Z,101997.13
2023-04-03T16:17:27.097Z,101982.13
2023-04-03T16:19:55.689Z,101997.00
2023-04-03T16:22:24.886Z,102000.69
2023-04-03T16:24:51.634Z,101997.47
2023-04-03T16:27:18.271Z,101997.69
2023-04-03T16:29:46.350Z,102011.88
2023-04-03T16:32:13.985Z,102008.13
2023-04-03T16:34:42.001Z,102008.84
2023-04-03T16:37:09.062Z,102010.63
2023-04-03T16:39:35.891Z,101985.25
2023-04-03T16:42:02.593Z,102008.38
2023-04-03T16:44:29.256Z,101989.69
2023-04-03T16:46:57.205Z,102009.94
2023-04-03T16:49:23.885Z,102002.69
2023-04-03T16:51:50.506Z,102007.28
2023-04-03T16:54:17.189Z,101976.50
2023-04-03T16:56:43.732Z,102016.63
2023-04-03T16:59:10.410Z,102016.41
2023-04-03T17:01:36.963Z,102015.50
2023-04-03T17:04:04.969Z,101968.66
2023-04-03T17:06:31.557Z,102023.75
2023-04-03T17:08:58.201Z,102000.47
2023-04-03T17:11:28.338Z,102015.22
2023-04-03T17:13:55.030Z,102016.06
2023-04-03T17:16:23.260Z,102013.91
2023-04-03T17:18:50.147Z,102021.13
2023-04-03T17:21:20.608Z,102024.13
2023-04-03T17:23:51.181Z,102017.50
2023-04-03T17:26:17.819Z,102022.31
2023-04-03T17:28:45.625Z,101991.78
2023-04-03T17:31:13.637Z,102028.22
2023-04-03T17:33:40.253Z,102008.53
2023-04-03T17:36:07.705Z,102017.06
2023-04-03T17:38:35.679Z,102030.47
2023-04-03T17:41:05.252Z,102028.81
2023-04-03T17:43:32.010Z,102023.66
2023-04-03T17:46:01.746Z,102038.47
2023-04-03T17:48:28.320Z,102037.63
2023-04-03T17:50:54.846Z,102031.75
2023-04-03T17:53:21.450Z,102037.06
2023-04-03T17:55:49.352Z,102037.72
2023-04-03T17:58:15.913Z,102041.00
2023-04-03T18:00:42.472Z,102039.72
2023-04-03T18:03:09.109Z,102040.13
2023-04-03T18:05:37.283Z,102050.53
2023-04-03T18:08:04.651Z,102017.28
2023-04-03T18:10:31.229Z,102048.78
2023-04-03T18:12:59.134Z,102053.72
2023-04-03T18:15:25.749Z,102050.56
2023-04-03T18:17:52.359Z,102051.31
2023-04-03T18:20:18.979Z,102063.19
2023-04-03T18:22:45.556Z,102055.66
2023-04-03T18:25:12.291Z,102054.28
2023-04-03T18:27:40.352Z,102055.41
2023-04-03T18:30:13.850Z,102066.47
2023-04-03T18:32:40.814Z,102066.88
2023-04-03T18:35:08.735Z,102068.28
2023-04-03T18:37:35.467Z,102070.47
2023-04-03T18:40:02.253Z,102077.53
2023-04-03T18:42:28.891Z,102076.69
2023-04-03T18:44:59.206Z,102071.72
2023-04-03T18:47:28.683Z,102081.28
2023-04-03T18:49:56.569Z,102087.03
2023-04-03T18:52:23.213Z,102086.22
2023-04-03T18:54:49.800Z,102090.84
2023-04-03T18:57:16.498Z,102093.97
2023-04-03T18:59:43.095Z,102098.69
2023-04-03T19:02:09.841Z,102095.50
2023-04-03T19:04:38.150Z,102088.22
2023-04-03T19:07:04.768Z,102102.75
2023-04-03T19:09:31.399Z,102100.16
2023-04-03T19:11:58.017Z,102110.03
2023-04-03T19:14:24.642Z,102105.91
2023-04-03T19:16:51.634Z,102114.84
2023-04-03T19:19:18.286Z,102100.66
2023-04-03T19:21:46.160Z,102111.06
2023-04-03T19:24:13.108Z,102082.53
2023-04-03T19:26:40.774Z,102123.06
2023-04-03T19:29:07.751Z,102125.91
2023-04-03T19:31:35.333Z,102122.78
2023-04-03T19:34:01.898Z,102127.94
2023-04-03T19:36:28.768Z,102121.97
2023-04-03T19:38:58.934Z,102131.78
2023-04-03T19:41:28.205Z,102124.88
2023-04-03T19:43:55.602Z,102131.16
2023-04-03T19:46:22.629Z,102129.56
2023-04-03T19:48:49.244Z,102136.97
2023-04-03T19:51:16.050Z,102131.22
2023-04-03T19:53:42.771Z,102135.88
2023-04-03T19:56:10.844Z,102136.19
2023-04-03T19:58:37.393Z,102138.94
2023-04-03T20:01:03.986Z,102132.91
2023-04-03T20:03:30.530Z,102135.13
2023-04-03T20:05:57.120Z,102139.53
2023-04-03T20:08:23.979Z,102142.34
2023-04-03T20:10:50.606Z,102141.78
2023-04-03T20:13:18.715Z,102139.53
2023-04-03T20:15:45.437Z,102139.91
2023-04-03T20:18:14.301Z,102136.63
2023-04-03T20:20:41.016Z,102143.13
2023-04-03T20:23:08.314Z,102144.41
2023-04-03T20:28:04.295Z,102143.34
2023-04-03T20:30:32.231Z,102137.47
2023-04-03T20:32:58.823Z,102139.47
2023-04-03T20:35:25.375Z,102137.97
2023-04-03T20:37:51.980Z,102136.56
2023-04-03T20:40:18.497Z,102143.78
2023-04-03T20:42:45.031Z,102133.72
2023-04-03T20:45:12.178Z,102101.72
2023-04-03T20:47:40.262Z,102142.06
2023-04-03T20:50:08.189Z,102144.81
2023-04-03T20:52:36.393Z,102130.63
2023-04-03T20:55:03.266Z,102139.53
2023-04-03T20:57:29.834Z,102137.97
2023-04-03T20:59:56.436Z,102150.22
2023-04-03T21:02:23.021Z,102147.88
2023-04-03T21:04:53.246Z,102113.19
2023-04-03T21:07:57.271Z,102153.69
2023-04-03T21:11:01.219Z,102149.56
2023-04-03T21:14:05.234Z,102154.97
2023-04-03T21:16:31.968Z,102146.56
2023-04-03T21:19:09.007Z,102141.63
2023-04-03T21:21:35.832Z,102136.56
2023-04-03T21:24:04.059Z,102154.78
2023-04-03T21:26:30.749Z,102154.00
2023-04-03T21:28:57.826Z,102144.78
2023-04-03T21:31:24.997Z,102131.25
2023-04-03T21:33:51.605Z,102150.13
2023-04-03T21:36:19.957Z,102150.19
2023-04-03T21:38:46.664Z,102155.53
2023-04-03T21:41:13.642Z,102080.41
2023-04-03T21:43:40.249Z,102148.88
2023-04-03T21:46:07.693Z,102140.34
2023-04-03T21:48:35.892Z,102151.66
2023-04-03T21:51:03.196Z,102146.53
2023-04-03T21:53:31.124Z,102132.06
2023-04-03T21:55:58.083Z,102105.78
2023-04-03T21:58:28.273Z,102151.22
2023-04-03T22:00:54.925Z,102149.59
2023-04-03T22:03:21.626Z,102147.09
2023-04-03T22:05:48.642Z,102148.75
2023-04-03T22:08:15.417Z,102149.03
2023-04-03T22:10:43.776Z,102107.22
2023-04-03T22:13:10.324Z,102150.16
2023-04-03T22:15:36.975Z,102114.44
2023-04-03T22:18:03.639Z,102119.63
2023-04-03T22:20:30.332Z,102114.63
2023-04-03T22:22:56.874Z,102090.72
2023-04-03T22:25:23.512Z,102127.69
2023-04-03T22:27:51.421Z,102140.59
2023-04-03T22:30:18.124Z,102153.44
2023-04-03T22:32:44.789Z,102142.59
2023-04-03T22:35:11.772Z,102154.53
2023-04-03T22:37:38.360Z,102159.88
2023-04-03T22:40:06.426Z,102140.44
2023-04-03T22:42:32.947Z,102164.44
2023-04-03T22:45:00.899Z,102152.53
2023-04-03T22:47:27.677Z,102137.94
2023-04-03T22:49:54.328Z,102138.88
2023-04-03T22:52:21.370Z,102152.59
2023-04-03T22:54:48.028Z,102147.41
2023-04-03T22:57:14.596Z,102150.91
2023-04-03T22:59:41.268Z,102144.13
2023-04-03T23:02:09.248Z,102139.03
2023-04-03T23:04:35.960Z,102122.16
2023-04-03T23:07:02.591Z,102147.78
2023-04-03T23:09:29.413Z,102083.56
2023-04-03T23:11:56.093Z,102135.91
2023-04-03T23:14:22.681Z,102137.72
2023-04-03T23:16:49.318Z,102140.41
2023-04-03T23:19:17.306Z,102118.19
2023-04-03T23:21:43.941Z,102143.91
2023-04-03T23:24:10.596Z,102133.69
2023-04-03T23:26:37.173Z,102141.41
2023-04-03T23:29:03.798Z,102131.25
2023-04-03T23:31:30.427Z,102136.41
2023-04-03T23:33:57.026Z,102123.63
2023-04-03T23:36:24.943Z,102132.09
2023-04-03T23:38:55.896Z,102133.06
2023-04-03T23:41:22.610Z,102135.66
2023-04-03T23:43:49.129Z,102141.75
2023-04-03T23:46:15.755Z,102127.94
2023-04-03T23:48:44.320Z,102137.41
2023-04-03T23:51:11.135Z,102137.47
2023-04-03T23:53:39.094Z,102143.59
2023-04-03T23:56:06.751Z,102139.31
2023-04-03T23:58:33.307Z,102142.72
